Time;durP1;ratioP1;P1;durP2;ratioP2;P2;SDS_P1;SDS_P2;PMS_P1;PMS_P2;Temp;Humidity;BMP_temperature;BMP_pressure;BME280_temperature;BME280_humidity;BME280_pressure;Samples;Min_cycle;Max_cycle;Signal;HPM_P1;HPM_P2
2022/07/05 00:03:06;;;;;;;8.40;7.53;;;;;;;21.33;86.94;100407.50;2815427;84;21243;-86
2022/07/05 00:07:17;;;;;;;8.15;7.47;;;;;;;21.39;86.92;100415.68;2783382;83;21015;-87
2022/07/05 00:11:19;;;;;;;8.10;7.05;;;;;;;21.45;86.86;100419.48;2788770;84;21050;-86
2022/07/05 00:15:21;;;;;;;8.95;8.15;;;;;;;21.46;86.31;100420.30;2798740;83;21051;-86
2022/07/05 00:19:23;;;;;;;8.10;7.33;;;;;;;21.39;86.39;100416.19;2799334;83;21078;-86
2022/07/05 00:23:24;;;;;;;6.65;6.12;;;;;;;21.36;86.27;100413.87;2801756;83;21063;-87
2022/07/05 00:27:26;;;;;;;8.18;6.65;;;;;;;21.35;85.63;100413.55;2817734;83;21346;-87
2022/07/05 00:31:27;;;;;;;6.85;6.08;;;;;;;21.37;84.58;100410.98;2816309;84;21027;-86
2022/07/05 00:35:29;;;;;;;7.20;6.10;;;;;;;21.37;83.95;100406.08;2819355;83;21034;-86
2022/07/05 00:39:30;;;;;;;6.60;5.60;;;;;;;21.34;82.99;100416.79;2809023;83;21042;-86
2022/07/05 00:43:31;;;;;;;6.58;5.72;;;;;;;21.29;82.19;100408.39;2820469;83;21046;-86
2022/07/05 00:47:33;;;;;;;7.37;6.40;;;;;;;21.30;82.51;100399.24;2820048;83;20999;-86
2022/07/05 00:51:38;;;;;;;8.43;4.40;;;;;;;21.23;82.23;100392.45;2817189;84;20988;-86
2022/07/05 00:55:40;;;;;;;4.75;4.30;;;;;;;21.21;82.20;100395.83;2819285;83;21007;-86
2022/07/05 00:59:41;;;;;;;6.08;5.42;;;;;;;21.09;82.23;100400.10;2822719;83;21039;-86
2022/07/05 01:03:44;;;;;;;7.55;4.55;;;;;;;21.00;81.89;100396.69;2820164;83;21005;-87
2022/07/05 01:07:45;;;;;;;7.42;4.87;;;;;;;20.90;81.55;100402.41;2816427;83;21089;-87
2022/07/05 01:11:49;;;;;;;5.05;4.50;;;;;;;20.87;81.53;100417.66;2814003;83;20988;-87
2022/07/05 01:15:51;;;;;;;4.60;4.15;;;;;;;20.87;82.55;100412.25;2817095;83;21055;-87
2022/07/05 01:19:53;;;;;;;4.62;4.00;;;;;;;20.77;81.93;100402.21;2819803;83;21031;-87
2022/07/05 01:23:55;;;;;;;4.58;4.05;;;;;;;20.73;81.01;100403.09;2779854;83;21012;-87
2022/07/05 01:27:59;;;;;;;6.20;4.65;;;;;;;20.77;80.95;100394.95;2820996;81;20976;-86
2022/07/05 01:32:00;;;;;;;8.08;5.12;;;;;;;20.83;80.34;100400.12;2811872;83;21090;-87
2022/07/05 01:36:02;;;;;;;6.85;5.70;;;;;;;20.88;80.48;100402.26;2812360;83;21041;-87
2022/07/05 01:40:05;;;;;;;9.45;5.80;;;;;;;20.90;81.04;100396.14;2809880;84;21011;-86
2022/07/05 01:44:06;;;;;;;5.85;5.35;;;;;;;20.87;80.69;100404.14;2808037;84;21000;-86
2022/07/05 01:48:14;;;;;;;6.65;5.85;;;;;;;20.82;81.93;100408.77;2783536;84;21615;-87
2022/07/05 01:52:20;;;;;;;7.55;5.37;;;;;;;20.75;83.18;100417.78;2786061;83;21816;-86
2022/07/05 01:56:22;;;;;;;7.10;5.50;;;;;;;20.62;83.19;100421.99;2788053;84;21047;-86
2022/07/05 02:00:23;;;;;;;6.40;5.12;;;;;;;20.43;83.31;100411.27;2802627;83;21039;-86
2022/07/05 02:04:25;;;;;;;8.23;4.95;;;;;;;20.38;83.92;100415.88;2799200;83;21122;-85
2022/07/05 02:08:30;;;;;;;5.47;4.97;;;;;;;20.36;83.97;100415.23;2801172;84;21012;-86
2022/07/05 02:12:32;;;;;;;5.65;4.87;;;;;;;20.35;83.54;100406.80;2803384;84;21039;-86
2022/07/05 02:16:34;;;;;;;11.22;5.22;;;;;;;20.40;83.07;100401.67;2805457;83;21082;-86
2022/07/05 02:20:39;;;;;;;6.47;4.28;;;;;;;20.46;83.10;100412.24;2796580;83;21031;-86
2022/07/05 02:24:40;;;;;;;6.17;5.57;;;;;;;20.46;82.42;100408.72;2796842;84;20996;-86
2022/07/05 02:28:42;;;;;;;6.70;4.33;;;;;;;20.43;82.07;100409.92;2807592;83;21027;-86
2022/07/05 02:32:44;;;;;;;5.12;3.70;;;;;;;20.46;81.76;100410.89;2801276;84;21012;-86
2022/07/05 02:36:45;;;;;;;4.90;4.47;;;;;;;20.47;81.06;100416.61;2800762;84;20984;-86
2022/07/05 02:40:47;;;;;;;6.50;3.55;;;;;;;20.51;80.71;100414.39;2808598;83;21035;-86
2022/07/05 02:44:49;;;;;;;4.22;3.65;;;;;;;20.52;80.43;100427.69;2813123;83;21599;-86
2022/07/05 02:48:52;;;;;;;5.05;4.08;;;;;;;20.54;80.07;100424.31;2814959;83;21102;-86
2022/07/05 02:52:54;;;;;;;4.35;3.92;;;;;;;20.48;80.35;100436.38;2809730;83;21060;-86
2022/07/05 02:56:55;;;;;;;3.95;3.50;;;;;;;20.45;81.08;100436.77;2809930;82;21019;-87
2022/07/05 03:00:56;;;;;;;5.05;4.03;;;;;;;20.41;82.45;100443.05;2792617;83;21388;-89
2022/07/05 03:04:58;;;;;;;4.58;4.17;;;;;;;20.27;83.76;100442.03;2795305;83;21051;-86
2022/07/05 03:08:59;;;;;;;6.62;4.28;;;;;;;20.20;83.50;100445.12;2808527;83;21022;-86
2022/07/05 03:13:00;;;;;;;5.22;4.72;;;;;;;20.19;84.36;100449.70;2792004;83;21054;-86
2022/07/05 03:17:02;;;;;;;6.33;4.78;;;;;;;20.25;83.99;100448.13;2788443;83;21026;-86
2022/07/05 03:21:03;;;;;;;6.65;4.58;;;;;;;20.20;83.78;100455.92;2799644;83;21003;-87
2022/07/05 03:25:06;;;;;;;4.22;3.90;;;;;;;20.10;84.54;100457.05;2759177;83;21022;-86
2022/07/05 03:29:08;;;;;;;7.17;4.78;;;;;;;20.10;84.54;100465.16;2790683;83;21046;-86
2022/07/05 03:33:09;;;;;;;14.43;5.42;;;;;;;20.24;84.73;100466.67;2798247;83;21039;-85
2022/07/05 03:37:10;;;;;;;6.28;5.00;;;;;;;20.40;83.94;100471.91;2807945;83;21337;-85
2022/07/05 03:41:12;;;;;;;5.42;4.92;;;;;;;20.53;83.77;100478.53;2803148;83;21067;-86
2022/07/05 03:45:13;;;;;;;6.60;3.72;;;;;;;20.67;84.30;100480.39;2796658;83;21086;-86
2022/07/05 03:49:14;;;;;;;8.18;4.50;;;;;;;20.76;84.30;100496.49;2791517;83;21003;-87
2022/07/05 03:53:15;;;;;;;8.58;5.53;;;;;;;20.76;85.12;100498.70;2755618;83;21007;-85
2022/07/05 03:57:17;;;;;;;5.22;4.72;;;;;;;20.78;85.59;100495.79;2816825;83;21476;-85
2022/07/05 04:01:18;;;;;;;5.35;4.90;;;;;;;20.76;84.67;100478.92;2807253;83;21086;-86
2022/07/05 04:05:20;;;;;;;5.72;5.12;;;;;;;20.76;84.82;100489.23;2794287;83;21007;-85
2022/07/05 04:09:21;;;;;;;9.00;5.47;;;;;;;20.58;87.57;100494.19;2788329;83;21010;-86
2022/07/05 04:13:23;;;;;;;8.45;4.60;;;;;;;20.44;88.77;100499.39;2812165;83;21003;-86
2022/07/05 04:17:24;;;;;;;10.05;4.30;;;;;;;20.23;89.20;100491.52;2814209;83;21066;-88
2022/07/05 04:21:25;;;;;;;5.75;4.47;;;;;;;20.08;87.80;100492.00;2808360;83;20995;-89
2022/07/05 04:25:26;;;;;;;9.58;4.80;;;;;;;20.09;88.59;100495.88;2811007;83;21087;-88
2022/07/05 04:29:27;;;;;;;7.87;5.17;;;;;;;20.07;88.92;100492.52;2797577;83;21059;-88
2022/07/05 04:33:29;;;;;;;5.90;5.30;;;;;;;20.12;88.84;100491.45;2812968;83;21039;-88
2022/07/05 04:37:30;;;;;;;15.18;5.17;;;;;;;20.11;89.68;100490.27;2795595;83;21031;-86
2022/07/05 04:41:31;;;;;;;8.40;5.72;;;;;;;20.16;89.96;100489.23;2680494;87;21022;-88
2022/07/05 04:45:33;;;;;;;6.53;5.00;;;;;;;20.25;90.17;100502.14;2772362;83;21038;-88
2022/07/05 04:49:34;;;;;;;5.40;4.90;;;;;;;20.37;90.78;100503.34;2801073;83;21065;-87
2022/07/05 04:53:35;;;;;;;5.50;4.87;;;;;;;20.28;92.94;100511.22;2787208;83;21043;-87
2022/07/05 04:57:41;;;;;;;6.65;5.40;;;;;;;20.26;93.05;100512.74;2804295;83;20999;-88
2022/07/05 05:01:43;;;;;;;10.48;5.92;;;;;;;20.40;92.79;100504.32;2794961;83;21058;-87
2022/07/05 05:05:44;;;;;;;9.35;4.80;;;;;;;20.58;93.32;100509.05;2816783;83;21047;-88
2022/07/05 05:09:45;;;;;;;10.75;6.08;;;;;;;20.60;94.46;100515.92;2818921;83;21075;-87
2022/07/05 05:13:47;;;;;;;10.80;4.90;;;;;;;20.55;94.24;100519.70;2813873;84;21145;-87
2022/07/05 05:17:48;;;;;;;5.47;4.97;;;;;;;20.51;93.33;100518.41;2805421;84;21066;-88
2022/07/05 05:21:49;;;;;;;18.60;5.97;;;;;;;20.48;93.33;100522.84;2724588;84;20996;-88
2022/07/05 05:25:51;;;;;;;7.10;5.33;;;;;;;20.46;93.92;100514.91;2730507;83;21015;-88
2022/07/05 05:29:52;;;;;;;8.35;5.35;;;;;;;20.57;94.33;100505.50;2819601;83;21030;-88
2022/07/05 05:33:53;;;;;;;14.47;6.35;;;;;;;20.75;94.52;100507.84;2820800;83;22366;-88
2022/07/05 05:37:56;;;;;;;7.15;6.05;;;;;;;20.94;94.45;100517.25;2820162;83;20980;-87
2022/07/05 05:41:57;;;;;;;7.17;6.12;;;;;;;21.02;93.73;100520.86;2814624;83;21035;-88
2022/07/05 05:45:58;;;;;;;7.65;6.70;;;;;;;21.07;93.00;100514.39;2806969;83;21328;-88
2022/07/05 05:49:59;;;;;;;7.95;5.97;;;;;;;21.02;93.36;100511.39;2812958;83;21015;-87
2022/07/05 05:54:01;;;;;;;7.72;6.25;;;;;;;21.01;94.13;100519.18;2815379;83;21480;-88
2022/07/05 05:58:21;;;;;;;8.03;6.42;;;;;;;21.04;94.27;100527.77;2814325;83;21027;-88
2022/07/05 06:02:22;;;;;;;7.90;6.40;;;;;;;21.15;94.22;100528.32;2810058;83;21003;-88
2022/07/05 06:06:24;;;;;;;7.85;6.15;;;;;;;21.18;93.69;100536.05;2808831;84;21019;-88
2022/07/05 06:10:29;;;;;;;8.28;6.62;;;;;;;21.12;93.20;100540.34;2814181;83;21106;-87
2022/07/05 06:14:30;;;;;;;12.10;7.20;;;;;;;21.04;93.47;100533.70;2795016;83;21063;-88
2022/07/05 06:18:32;;;;;;;6.08;5.45;;;;;;;20.98;94.36;100538.81;2801087;83;21035;-88
2022/07/05 06:22:33;;;;;;;9.53;6.10;;;;;;;20.92;94.75;100543.64;2806949;83;21067;-88
2022/07/05 06:26:34;;;;;;;10.30;5.90;;;;;;;20.93;95.73;100550.72;2810195;83;21094;-87
2022/07/05 06:30:38;;;;;;;7.92;7.08;;;;;;;21.01;96.08;100550.28;2791877;83;21535;-88
2022/07/05 06:34:39;;;;;;;8.40;6.08;;;;;;;21.09;96.07;100547.48;2791212;83;21499;-88
2022/07/05 06:38:40;;;;;;;6.62;5.95;;;;;;;21.19;95.81;100546.66;2796294;83;21055;-88
2022/07/05 06:42:41;;;;;;;6.20;5.60;;;;;;;21.23;95.03;100530.91;2782633;84;21637;-87
2022/07/05 06:46:42;;;;;;;5.95;5.15;;;;;;;21.24;95.10;100527.16;2798686;84;21027;-88
2022/07/05 06:50:44;;;;;;;7.47;6.15;;;;;;;21.19;95.47;100518.79;2807030;83;21035;-88
2022/07/05 06:54:46;;;;;;;7.10;6.47;;;;;;;21.05;96.27;100520.51;2807710;84;21054;-88
2022/07/05 06:58:48;;;;;;;9.28;6.90;;;;;;;20.98;96.40;100532.06;2806347;84;23457;-87
2022/07/05 07:02:49;;;;;;;6.70;5.97;;;;;;;20.95;96.95;100547.84;2785198;83;21052;-88
2022/07/05 07:06:50;;;;;;;9.63;6.85;;;;;;;21.00;98.33;100552.66;2806476;84;21067;-87
2022/07/05 07:10:51;;;;;;;7.72;6.97;;;;;;;21.08;98.33;100553.40;2803134;83;21086;-88
2022/07/05 07:14:53;;;;;;;8.25;6.33;;;;;;;21.16;98.10;100554.34;2808756;84;21011;-88
2022/07/05 07:18:56;;;;;;;8.93;5.95;;;;;;;21.35;98.19;100563.70;2810168;83;21015;-88
2022/07/05 07:22:57;;;;;;;8.70;6.28;;;;;;;21.48;97.58;100565.72;2772248;83;21054;-88
2022/07/05 07:27:04;;;;;;;7.47;6.58;;;;;;;21.62;96.41;100574.84;2793657;83;21023;-87
2022/07/05 07:31:09;;;;;;;7.42;6.70;;;;;;;21.73;96.19;100568.94;2801861;84;21071;-88
2022/07/05 07:35:11;;;;;;;6.60;6.10;;;;;;;21.74;95.43;100562.48;2806418;83;21086;-88
2022/07/05 07:39:13;;;;;;;11.18;7.05;;;;;;;21.72;94.65;100564.55;2795133;84;21094;-88
2022/07/05 07:43:14;;;;;;;7.87;5.87;;;;;;;21.74;95.03;100569.79;2779208;84;21042;-87
2022/07/05 07:47:16;;;;;;;8.23;6.65;;;;;;;21.79;95.81;100564.09;2817485;83;21071;-88
2022/07/05 07:51:18;;;;;;;7.58;6.87;;;;;;;21.96;94.91;100559.27;2820255;83;21063;-88
2022/07/05 07:55:20;;;;;;;8.63;7.72;;;;;;;22.02;93.25;100556.81;2819166;83;20995;-88
2022/07/05 07:59:24;;;;;;;7.42;6.75;;;;;;;22.05;93.72;100554.56;2809656;83;20967;-88
2022/07/05 08:03:25;;;;;;;8.68;6.92;;;;;;;21.93;92.91;100540.71;2816508;83;21054;-88
2022/07/05 08:07:27;;;;;;;10.15;7.28;;;;;;;22.02;93.49;100559.02;2733362;84;21031;-87
2022/07/05 08:11:28;;;;;;;8.48;7.75;;;;;;;22.16;93.05;100565.87;2805050;83;21467;-88
2022/07/05 08:15:30;;;;;;;7.78;7.08;;;;;;;22.21;92.95;100566.15;2817872;83;21011;-87
2022/07/05 08:23:51;;;;;;;8.28;7.50;;;;;;;22.28;92.89;100575.66;2814049;83;21091;-88
2022/07/05 08:27:52;;;;;;;7.60;5.87;;;;;;;22.31;92.93;100582.06;2775442;83;21356;-88
2022/07/05 08:31:53;;;;;;;10.60;6.30;;;;;;;22.35;93.26;100582.81;2783206;83;21113;-88
2022/07/05 08:35:54;;;;;;;8.38;6.35;;;;;;;22.36;92.98;100587.73;2820799;83;21015;-88
2022/07/05 08:39:56;;;;;;;7.05;6.47;;;;;;;22.31;93.06;100595.62;2810045;83;21031;-88
2022/07/05 08:43:58;;;;;;;6.28;5.55;;;;;;;22.42;93.27;100593.70;2811194;83;21074;-88
2022/07/05 08:48:01;;;;;;;6.95;6.25;;;;;;;22.51;92.48;100594.43;2813469;83;21035;-88
2022/07/05 08:52:04;;;;;;;9.85;6.85;;;;;;;22.60;92.10;100586.48;2809755;84;21016;-88
2022/07/05 08:56:09;;;;;;;7.12;5.62;;;;;;;22.58;90.11;100581.75;2813695;83;21011;-88
2022/07/05 09:00:11;;;;;;;6.33;5.53;;;;;;;22.62;89.89;100583.05;2816365;83;21509;-88
2022/07/05 09:04:14;;;;;;;7.03;4.85;;;;;;;22.56;89.42;100583.83;2809339;83;21007;-88
2022/07/05 09:08:16;;;;;;;4.42;4.03;;;;;;;22.50;88.66;100584.62;2794935;83;21059;-88
2022/07/05 09:12:17;;;;;;;6.87;5.03;;;;;;;22.54;88.38;100591.31;2799059;84;21070;-88
2022/07/05 09:16:19;;;;;;;6.03;5.33;;;;;;;22.63;88.99;100590.65;2798320;84;21043;-88
2022/07/05 09:20:20;;;;;;;6.17;5.58;;;;;;;22.63;87.40;100594.72;2810142;83;20953;-88
2022/07/05 09:24:21;;;;;;;8.23;6.95;;;;;;;22.66;88.26;100584.33;2776904;83;21031;-88
2022/07/05 09:28:23;;;;;;;7.47;4.90;;;;;;;22.77;86.10;100582.08;2717434;84;21050;-88
2022/07/05 09:32:25;;;;;;;5.55;5.12;;;;;;;22.96;84.34;100587.30;2806079;83;21063;-88
2022/07/05 09:36:30;;;;;;;7.03;5.90;;;;;;;23.09;85.24;100583.31;2771318;83;21500;-88
2022/07/05 09:40:33;;;;;;;6.37;5.10;;;;;;;23.26;84.34;100589.75;2779308;83;21016;-88
2022/07/05 09:44:39;;;;;;;6.00;4.60;;;;;;;23.48;83.31;100586.40;2777694;84;21057;-88
2022/07/05 09:48:46;;;;;;;6.37;4.05;;;;;;;23.75;80.72;100586.45;2673092;84;21041;-87
2022/07/05 09:52:47;;;;;;;5.50;4.00;;;;;;;23.83;77.31;100592.21;2751891;85;21045;-88
2022/07/05 09:56:49;;;;;;;9.60;6.42;;;;;;;23.87;77.73;100592.11;2738355;85;21049;-88
2022/07/05 10:00:50;;;;;;;11.25;7.75;;;;;;;24.00;75.57;100589.95;2756751;84;21020;-88
2022/07/05 10:05:09;;;;;;;17.32;11.22;;;;;;;24.22;73.43;100578.91;2812764;82;21007;-88
2022/07/05 10:09:11;;;;;;;4.00;3.70;;;;;;;24.59;75.37;100572.50;2808017;82;20990;-88
2022/07/05 10:13:14;;;;;;;6.20;4.42;;;;;;;24.87;71.94;100571.41;2825948;83;21142;-88
2022/07/05 10:17:16;;;;;;;7.53;4.17;;;;;;;25.13;70.20;100568.27;2778423;83;21070;-88
2022/07/05 10:21:19;;;;;;;3.62;3.27;;;;;;;25.30;72.29;100571.34;2808519;83;21077;-88
2022/07/05 10:25:22;;;;;;;8.88;3.72;;;;;;;25.42;69.18;100570.14;2793816;83;21059;-88
2022/07/05 10:29:25;;;;;;;4.40;3.98;;;;;;;25.53;68.43;100559.11;2817835;83;21038;-88
2022/07/05 10:33:27;;;;;;;6.55;4.25;;;;;;;25.57;68.87;100563.59;2821230;83;21019;-88
2022/07/05 10:37:31;;;;;;;7.97;5.95;;;;;;;25.63;67.46;100558.08;2811200;83;21129;-88
2022/07/05 10:41:34;;;;;;;3.65;3.35;;;;;;;25.97;67.18;100551.05;2808678;83;21449;-87
2022/07/05 10:45:38;;;;;;;3.22;2.92;;;;;;;25.97;67.18;100551.05;2760511;84;21079;-88
2022/07/05 10:49:41;;;;;;;4.27;3.37;;;;;;;26.20;69.05;100548.27;2771693;84;21022;-87
2022/07/05 10:53:51;;;;;;;3.87;3.58;;;;;;;26.40;68.63;100549.97;2811034;83;21071;-88
2022/07/05 10:58:20;;;;;;;8.13;3.75;;;;;;;26.52;64.68;100545.42;2814819;83;21547;-88
2022/07/05 11:02:22;;;;;;;6.97;3.27;;;;;;;26.54;65.00;100550.15;2817062;84;21464;-88
2022/07/05 11:06:33;;;;;;;5.15;3.52;;;;;;;26.63;64.08;100541.95;2818576;83;21542;-88
2022/07/05 11:10:35;;;;;;;2.77;2.58;;;;;;;26.85;62.65;100537.44;2780542;83;21026;-89
2022/07/05 11:14:37;;;;;;;2.65;2.45;;;;;;;27.06;60.51;100529.31;2800256;83;21078;-87
2022/07/05 11:18:39;;;;;;;3.30;2.02;;;;;;;27.34;61.39;100530.61;2812628;83;21046;-89
2022/07/05 11:23:02;;;;;;;2.27;2.10;;;;;;;27.49;58.38;100517.88;2817876;83;21034;-88
2022/07/05 11:27:11;;;;;;;4.42;2.33;;;;;;;27.46;58.08;100521.08;2821807;83;21032;-88
2022/07/05 11:31:22;;;;;;;2.98;2.65;;;;;;;27.43;58.42;100517.45;2830588;83;21014;-88
2022/07/05 11:35:29;;;;;;;3.92;2.15;;;;;;;27.34;57.74;100513.41;2825332;83;21066;-88
2022/07/05 11:39:30;;;;;;;3.92;2.37;;;;;;;27.14;58.83;100506.84;2831015;83;21114;-88
2022/07/05 11:43:31;;;;;;;4.47;1.80;;;;;;;27.06;56.66;100504.75;2837865;83;21038;-88
2022/07/05 11:47:34;;;;;;;3.12;1.60;;;;;;;27.13;54.76;100510.12;2836946;83;21026;-88
2022/07/05 11:51:36;;;;;;;2.95;1.52;;;;;;;27.25;53.12;100507.95;2840258;81;21443;-88
2022/07/05 11:55:37;;;;;;;2.08;1.90;;;;;;;27.37;51.02;100500.64;2839557;83;20996;-88
2022/07/05 11:59:41;;;;;;;1.52;1.40;;;;;;;27.43;54.93;100500.25;2807277;83;21055;-89
2022/07/05 12:03:56;;;;;;;3.33;1.90;;;;;;;27.54;53.96;100492.63;2839797;83;21055;-88
2022/07/05 12:07:58;;;;;;;1.87;1.47;;;;;;;27.67;54.32;100488.85;2816997;83;21062;-87
2022/07/05 12:16:19;;;;;;;3.45;1.77;;;;;;;27.77;52.03;100488.27;2813759;83;20984;-89
2022/07/05 12:20:23;;;;;;;3.02;1.45;;;;;;;27.86;52.15;100480.04;2789891;83;21576;-87
2022/07/05 12:24:25;;;;;;;2.50;1.50;;;;;;;27.86;53.80;100481.41;2812171;83;20971;-89
2022/07/05 12:28:26;;;;;;;2.92;1.95;;;;;;;28.01;54.10;100479.56;2797943;83;20994;-88
2022/07/05 12:32:29;;;;;;;3.47;2.50;;;;;;;28.01;54.77;100479.56;2803276;84;21066;-93
2022/07/05 12:36:31;;;;;;;5.22;2.15;;;;;;;27.95;54.79;100480.52;2819019;83;21024;-91
2022/07/05 12:40:33;;;;;;;2.77;2.40;;;;;;;27.96;55.46;100475.88;2800811;83;21067;-90
2022/07/05 12:44:35;;;;;;;2.72;2.17;;;;;;;28.04;54.28;100472.80;2785043;84;21023;-91
2022/07/05 12:48:38;;;;;;;2.65;2.20;;;;;;;28.12;54.44;100464.22;2794152;83;21066;-91
2022/07/05 13:01:44;;;;;;;3.22;3.02;;;;;;;28.22;53.89;100460.92;2793396;83;20996;-91
2022/07/05 13:05:54;;;;;;;61.88;40.03;;;;;;;27.98;55.18;100460.91;2799648;83;21095;-93
2022/07/05 13:09:59;;;;;;;14.15;8.68;;;;;;;27.87;55.59;100456.26;2800482;83;21618;-92
2022/07/05 13:14:00;;;;;;;;;;;;;;;27.98;56.07;100445.02;2785310;82;21290;-91
2022/07/05 13:18:01;;;;;;;4.05;3.10;;;;;;;28.16;54.58;100444.11;2797674;83;20133;-90
2022/07/05 13:22:04;;;;;;;3.00;2.80;;;;;;;28.12;55.70;100437.44;2808556;83;21027;-91
2022/07/05 13:26:06;;;;;;;2.72;2.55;;;;;;;28.13;54.90;100435.81;2804844;84;21651;-89
2022/07/05 13:30:08;;;;;;;4.37;2.70;;;;;;;28.11;55.25;100442.61;2808264;83;21114;-89
2022/07/05 13:34:10;;;;;;;3.62;2.42;;;;;;;28.10;54.52;100433.56;2809859;83;21036;-90
2022/07/05 13:38:11;;;;;;;5.83;2.90;;;;;;;28.02;55.49;100440.77;2758039;84;21008;-90
2022/07/05 13:42:13;;;;;;;4.72;2.80;;;;;;;27.85;55.45;100441.48;2802905;83;21110;-91
2022/07/05 13:46:14;;;;;;;4.08;2.40;;;;;;;27.59;58.08;100445.50;2773244;83;21090;-96
2022/07/05 13:50:34;;;;;;;5.30;3.25;;;;;;;27.28;58.31;100448.78;2768498;83;21420;-93
2022/07/05 13:54:36;;;;;;;8.18;3.50;;;;;;;27.33;59.51;100447.56;2810398;83;21031;-93
2022/07/05 13:58:39;;;;;;;4.83;2.58;;;;;;;27.22;58.84;100450.56;2805205;83;21165;-93
2022/07/05 14:02:42;;;;;;;2.75;2.55;;;;;;;27.17;59.16;100444.44;2765978;85;21366;-93
2022/07/05 14:06:44;;;;;;;10.95;3.85;;;;;;;27.21;58.51;100442.05;2747244;84;21063;-92
2022/07/05 14:10:45;;;;;;;5.25;2.40;;;;;;;27.38;57.27;100440.86;2706559;87;21045;-92
2022/07/05 14:14:47;;;;;;;4.75;2.83;;;;;;;27.59;57.47;100431.29;2731084;84;21070;-92
2022/07/05 14:18:50;;;;;;;3.83;2.95;;;;;;;27.72;56.11;100437.09;2724848;85;21057;-92
2022/07/05 14:22:51;;;;;;;5.67;3.98;;;;;;;27.68;56.14;100432.32;2760551;84;21051;-92
2022/07/05 14:26:53;;;;;;;3.08;2.72;;;;;;;27.57;56.17;100438.89;2719632;85;21073;-92
2022/07/05 14:30:55;;;;;;;4.28;2.72;;;;;;;27.53;56.27;100438.25;2749855;84;21036;-90
2022/07/05 14:34:56;;;;;;;4.95;3.12;;;;;;;27.57;56.36;100440.26;2741433;86;21398;-92
2022/07/05 14:39:00;;;;;;;2.65;2.45;;;;;;;27.58;56.77;100435.64;2723448;85;21553;-92
2022/07/05 14:43:02;;;;;;;5.17;2.77;;;;;;;27.52;56.49;100437.41;2752969;84;21535;-92
2022/07/05 14:47:04;;;;;;;4.25;2.47;;;;;;;27.42;56.12;100428.95;2742178;84;21135;-90
2022/07/05 14:51:05;;;;;;;3.80;2.40;;;;;;;27.15;56.54;100433.44;2705970;85;21072;-95
2022/07/05 14:55:09;;;;;;;22.52;7.30;;;;;;;27.09;57.36;100427.84;2746759;84;21127;-94
2022/07/05 14:59:10;;;;;;;2.65;2.45;;;;;;;26.98;56.48;100430.54;2706977;86;21078;-93
2022/07/05 16:01:24;;;;;;;2.87;1.98;;;;;;;27.00;53.31;100410.67;2709440;83;21087;-69
2022/07/05 16:05:26;;;;;;;5.40;2.02;;;;;;;27.04;54.43;100407.77;2691582;88;21027;-68
2022/07/05 16:09:27;;;;;;;6.85;2.00;;;;;;;26.88;54.86;100407.35;2691682;88;21021;-69
2022/07/05 16:13:31;;;;;;;1.98;1.80;;;;;;;26.80;54.86;100407.66;2671811;88;21317;-71
2022/07/05 16:17:32;;;;;;;4.12;1.98;;;;;;;27.01;55.05;100406.33;2691930;88;21009;-68
2022/07/05 16:21:37;;;;;;;2.72;2.15;;;;;;;27.10;54.92;100409.55;2692027;88;21008;-70
2022/07/05 16:25:38;;;;;;;;;;;;;;;27.09;54.07;100398.34;2646531;88;21056;-68
2022/07/05 16:29:39;;;;;;;4.45;1.67;;;;;;;26.93;53.22;100402.05;2672259;88;20144;-70
2022/07/05 16:59:19;;;;;;;3.90;1.85;;;;;;;26.57;54.29;100383.31;2737482;85;21133;-94
2022/07/05 17:03:20;;;;;;;2.33;2.05;;;;;;;26.53;54.26;100382.11;2730192;85;21199;-94
2022/07/05 17:07:22;;;;;;;2.35;1.57;;;;;;;26.49;53.56;100389.06;2761123;83;20972;-95
2022/07/05 17:11:23;;;;;;;1.50;1.40;;;;;;;26.50;53.85;100386.64;2750687;83;21067;-94
2022/07/05 17:15:25;;;;;;;2.77;2.17;;;;;;;26.42;53.96;100390.51;2748820;84;21039;-94
2022/07/05 17:19:26;;;;;;;4.40;2.08;;;;;;;26.30;54.38;100380.90;2745013;84;21495;-96
2022/07/05 17:23:28;;;;;;;3.83;1.90;;;;;;;26.27;54.78;100392.81;2744677;84;21028;-94
2022/07/05 17:27:30;;;;;;;2.45;1.82;;;;;;;26.14;54.80;100378.75;2758764;83;21075;-95
2022/07/05 17:31:32;;;;;;;4.00;1.55;;;;;;;26.09;55.01;100378.91;2769326;84;21555;-93
2022/07/05 17:35:33;;;;;;;1.98;1.47;;;;;;;26.07;55.58;100387.84;2750029;84;21055;-93
2022/07/05 17:39:35;;;;;;;3.95;2.37;;;;;;;26.05;55.08;100380.43;2713433;84;21043;-94
2022/07/05 17:43:37;;;;;;;3.45;2.27;;;;;;;26.01;54.92;100383.31;2751354;83;21015;-94
2022/07/05 17:51:48;;;;;;;4.62;1.52;;;;;;;25.76;56.17;100388.28;2795726;84;21013;-94
2022/07/05 17:55:49;;;;;;;4.05;2.12;;;;;;;25.69;56.40;100392.95;2840328;82;21011;-92
2022/07/05 17:59:50;;;;;;;2.05;1.85;;;;;;;25.59;57.09;100396.17;2792007;84;21074;-91
2022/07/05 18:03:52;;;;;;;2.60;1.67;;;;;;;25.46;57.06;100390.29;2794827;84;21037;-94
2022/07/05 18:07:56;;;;;;;6.72;2.92;;;;;;;25.32;56.88;100394.17;2854576;82;20996;-92
2022/07/05 18:11:57;;;;;;;22.98;5.55;;;;;;;25.22;57.73;100396.87;2843693;83;21053;-95
2022/07/05 18:16:01;;;;;;;4.75;2.22;;;;;;;25.18;58.42;100402.45;2805187;83;21060;-92
2022/07/05 18:20:02;;;;;;;7.08;2.00;;;;;;;25.06;58.87;100399.61;2794496;83;21084;-92
2022/07/05 18:24:03;;;;;;;2.60;2.15;;;;;;;25.02;59.40;100408.42;2785228;84;21033;-93
2022/07/05 18:28:06;;;;;;;5.50;2.50;;;;;;;24.98;59.51;100407.20;2817745;83;21010;-92
2022/07/05 18:32:08;;;;;;;18.92;5.55;;;;;;;24.94;60.49;100409.51;2800005;82;21430;-92
2022/07/05 18:36:09;;;;;;;56.90;12.53;;;;;;;24.92;60.64;100403.45;2779396;84;21022;-90
2022/07/05 18:40:12;;;;;;;6.97;3.35;;;;;;;24.90;61.25;100406.37;2816092;83;20980;-90
2022/07/05 18:44:14;;;;;;;3.80;3.42;;;;;;;24.83;61.63;100404.23;2748381;83;21008;-90
2022/07/05 18:48:15;;;;;;;10.13;3.10;;;;;;;24.75;62.25;100409.87;2831154;82;21032;-92
2022/07/05 18:52:18;;;;;;;6.58;3.40;;;;;;;24.67;62.20;100407.73;2801548;83;21576;-94
2022/07/05 18:56:20;;;;;;;4.03;2.72;;;;;;;24.60;62.68;100411.02;2792692;84;21048;-93
2022/07/05 19:00:21;;;;;;;11.73;3.60;;;;;;;24.49;63.53;100407.09;2777855;84;21046;-93
2022/07/05 19:04:23;;;;;;;6.20;4.20;;;;;;;24.37;63.40;100411.52;2808228;83;22273;-94
2022/07/05 19:17:12;;;;;;;9.03;4.05;;;;;;;23.90;65.62;100421.10;2726065;85;21020;-92
2022/07/05 19:21:14;;;;;;;12.70;6.17;;;;;;;23.60;67.03;100426.45;2828072;83;21060;-92
2022/07/05 19:25:16;;;;;;;12.65;6.45;;;;;;;23.34;67.31;100432.69;2798611;84;21004;-93
2022/07/05 19:29:17;;;;;;;15.68;7.08;;;;;;;23.18;67.57;100436.62;2785416;83;20994;-94
2022/07/05 19:33:19;;;;;;;22.45;9.05;;;;;;;23.09;67.98;100446.31;2771580;83;21530;-93
2022/07/05 19:37:20;;;;;;;53.98;25.70;;;;;;;23.00;68.57;100438.56;2806260;83;21059;-92
2022/07/05 19:41:22;;;;;;;69.05;32.23;;;;;;;22.91;68.97;100447.41;2735745;85;21501;-94
2022/07/05 19:45:24;;;;;;;71.85;31.20;;;;;;;22.78;68.40;100446.81;2797209;84;21550;-93
2022/07/05 19:49:25;;;;;;;73.05;29.35;;;;;;;22.68;69.23;100445.33;2778155;83;20993;-92
2022/07/05 19:53:27;;;;;;;18.00;11.68;;;;;;;22.60;69.28;100448.73;2787955;84;20986;-91
2022/07/05 19:57:28;;;;;;;21.65;11.20;;;;;;;22.48;69.58;100452.54;2790801;84;21060;-92
2022/07/05 20:01:32;;;;;;;15.00;10.50;;;;;;;22.34;69.62;100455.14;2792583;84;21521;-91
2022/07/05 20:05:35;;;;;;;12.47;8.73;;;;;;;22.22;70.25;100452.69;2767222;84;21013;-93
2022/07/05 20:09:37;;;;;;;12.23;8.90;;;;;;;22.08;70.24;100454.45;2775951;84;20998;-92
2022/07/05 20:13:39;;;;;;;13.10;8.45;;;;;;;21.94;70.16;100450.81;2780842;84;21694;-94
2022/07/05 20:17:41;;;;;;;12.60;8.28;;;;;;;21.79;70.38;100450.38;2757213;84;20954;-91
2022/07/05 20:43:57;;;;;;;7.37;6.37;;;;;;;20.71;75.53;100451.63;2873032;82;21050;-67
2022/07/05 20:47:58;;;;;;;8.68;5.58;;;;;;;20.62;76.08;100455.77;2875402;82;20991;-64
2022/07/05 20:52:00;;;;;;;5.67;4.67;;;;;;;20.59;75.82;100449.39;2816124;83;21277;-65
2022/07/05 20:56:43;;;;;;;6.10;4.62;;;;;;;20.55;75.35;100457.06;2818024;84;21001;-65
2022/07/05 21:00:44;;;;;;;6.05;4.90;;;;;;;20.46;74.54;100458.70;2817937;84;21012;-68
2022/07/05 21:05:24;;;;;;;5.20;4.42;;;;;;;20.40;74.26;100471.91;2817868;84;21044;-65